createdAt,value
2023-03-17T00:01:41.736Z,5.53
2023-03-17T00:04:12.628Z,6.90
2023-03-17T00:06:40.733Z,4.82
2023-03-17T00:09:15.545Z,3.08
2023-03-17T00:11:43.398Z,3.83
2023-03-17T00:14:10.275Z,4.63
2023-03-17T00:16:39.747Z,3.75
2023-03-17T00:19:06.487Z,3.63
2023-03-17T00:21:34.315Z,4.78
2023-03-17T00:24:01.652Z,5.28
2023-03-17T00:26:28.692Z,4.97
2023-03-17T00:28:55.273Z,7.28
2023-03-17T00:31:27.679Z,7.82
2023-03-17T00:33:55.342Z,3.72
2023-03-17T00:36:24.912Z,5.18
2023-03-17T00:38:52.795Z,4.90
2023-03-17T00:41:20.173Z,4.05
2023-03-17T00:43:46.793Z,5.35
2023-03-17T00:46:16.667Z,4.53
2023-03-17T00:48:45.534Z,5.30
2023-03-17T00:51:12.747Z,3.33
2023-03-17T00:53:39.897Z,5.50
2023-03-17T00:56:13.510Z,3.45
2023-03-17T00:58:40.106Z,5.45
2023-03-17T01:01:07.168Z,3.63
2023-03-17T01:03:34.354Z,5.13
2023-03-17T01:06:02.786Z,6.25
2023-03-17T01:08:30.292Z,3.70
2023-03-17T01:10:57.596Z,2.83
2023-03-17T01:13:24.655Z,4.32
2023-03-17T01:15:52.506Z,5.03
2023-03-17T01:18:22.732Z,4.45
2023-03-17T01:20:50.240Z,6.55
2023-03-17T01:23:17.885Z,6.13
2023-03-17T01:25:45.310Z,5.00
2023-03-17T01:28:18.046Z,4.63
2023-03-17T01:30:46.965Z,6.05
2023-03-17T01:33:14.570Z,6.68
2023-03-17T01:35:43.616Z,4.88
2023-03-17T01:38:10.670Z,3.42
2023-03-17T01:40:57.432Z,4.18
2023-03-17T01:43:28.085Z,3.30
2023-03-17T01:46:29.351Z,5.63
2023-03-17T01:49:09.379Z,3.67
2023-03-17T01:51:44.092Z,5.03
2023-03-17T01:54:22.330Z,4.80
2023-03-17T01:56:51.737Z,3.75
2023-03-17T01:59:23.783Z,6.47
2023-03-17T02:01:54.666Z,4.50
2023-03-17T02:04:22.031Z,6.82
2023-03-17T02:06:58.115Z,3.05
2023-03-17T02:09:27.063Z,3.20
2023-03-17T02:11:54.552Z,6.07
2023-03-17T02:14:21.534Z,4.57
2023-03-17T02:16:48.601Z,4.88
2023-03-17T02:19:16.114Z,2.22
2023-03-17T02:21:45.184Z,6.07
2023-03-17T02:24:37.657Z,8.38
2023-03-17T02:27:13.581Z,5.88
2023-03-17T02:29:41.495Z,5.68
2023-03-17T02:32:28.192Z,4.72
2023-03-17T02:35:16.202Z,3.42
2023-03-17T02:38:02.641Z,3.35
2023-03-17T02:40:49.278Z,3.97
2023-03-17T02:43:36.021Z,4.90
2023-03-17T02:46:08.228Z,3.67
2023-03-17T02:48:36.581Z,3.83
2023-03-17T02:51:04.213Z,4.88
2023-03-17T02:53:31.144Z,3.55
2023-03-17T02:55:58.244Z,4.28
2023-03-17T02:58:24.748Z,4.00
2023-03-17T03:00:51.565Z,4.97
2023-03-17T03:03:18.023Z,3.13
2023-03-17T03:05:44.757Z,4.22
2023-03-17T03:08:11.562Z,4.50
2023-03-17T03:10:37.999Z,3.67
2023-03-17T03:13:04.571Z,6.20
2023-03-17T03:15:31.095Z,3.05
2023-03-17T03:17:57.876Z,5.80
2023-03-17T03:20:24.559Z,2.58
2023-03-17T03:22:50.998Z,3.63
2023-03-17T03:25:17.768Z,3.15
2023-03-17T03:27:44.552Z,4.65
2023-03-17T03:30:11.610Z,4.45
2023-03-17T03:32:38.075Z,3.95
2023-03-17T03:35:04.932Z,5.70
2023-03-17T03:37:31.595Z,5.15
2023-03-17T03:39:58.114Z,5.38
2023-03-17T03:42:24.737Z,8.38
2023-03-17T03:44:51.478Z,7.82
2023-03-17T03:47:17.892Z,4.80
2023-03-17T03:49:44.496Z,5.50
2023-03-17T03:52:11.394Z,6.80
2023-03-17T03:54:38.356Z,5.93
2023-03-17T03:57:05.814Z,6.28
2023-03-17T03:59:32.428Z,6.57
2023-03-17T04:01:59.322Z,6.60
2023-03-17T04:04:25.991Z,9.98
2023-03-17T04:06:52.613Z,9.35
2023-03-17T04:09:19.184Z,10.98
2023-03-17T04:11:45.974Z,8.38
2023-03-17T04:14:12.654Z,6.82
2023-03-17T04:16:42.178Z,6.82
2023-03-17T04:21:36.687Z,8.40
2023-03-17T04:24:05.214Z,5.53
2023-03-17T04:26:32.161Z,8.25
2023-03-17T04:28:58.985Z,8.23
2023-03-17T04:31:25.745Z,8.13
2023-03-17T04:33:52.676Z,11.10
2023-03-17T04:36:21.684Z,8.38
2023-03-17T04:38:48.128Z,8.93
2023-03-17T04:41:15.407Z,10.30
2023-03-17T04:43:42.006Z,10.90
2023-03-17T04:46:09.210Z,8.00
2023-03-17T04:48:35.991Z,9.35
2023-03-17T04:51:02.793Z,6.13
2023-03-17T04:53:34.244Z,6.70
2023-03-17T04:56:00.828Z,6.53
2023-03-17T04:58:31.021Z,5.93
2023-03-17T05:03:27.652Z,4.50
2023-03-17T05:05:55.560Z,3.73
2023-03-17T05:08:22.438Z,5.78
2023-03-17T05:10:48.889Z,5.13
2023-03-17T05:13:15.879Z,6.05
2023-03-17T05:15:49.412Z,4.32
2023-03-17T05:18:16.557Z,3.75
2023-03-17T05:20:43.060Z,5.38
2023-03-17T05:23:09.931Z,6.13
2023-03-17T05:25:36.796Z,7.15
2023-03-17T05:28:03.780Z,8.23
2023-03-17T05:30:30.521Z,8.05
2023-03-17T05:32:57.576Z,10.25
2023-03-17T05:35:24.085Z,9.15
2023-03-17T05:37:51.078Z,10.10
2023-03-17T05:40:17.833Z,9.63
2023-03-17T05:42:44.460Z,9.50
2023-03-17T05:45:11.651Z,8.80
2023-03-17T05:47:38.116Z,16.25
2023-03-17T05:50:05.834Z,11.52
2023-03-17T05:52:32.404Z,9.75
2023-03-17T05:54:59.113Z,12.75
2023-03-17T05:57:26.280Z,11.40
2023-03-17T05:59:52.750Z,11.68
2023-03-17T06:02:19.571Z,13.18
2023-03-17T06:04:46.446Z,17.48
2023-03-17T06:07:13.215Z,10.73
2023-03-17T06:09:40.133Z,11.77
2023-03-17T06:12:07.480Z,12.48
2023-03-17T06:14:34.245Z,7.85
2023-03-17T06:17:01.662Z,11.32
2023-03-17T06:19:28.272Z,14.63
2023-03-17T06:21:54.775Z,10.77
2023-03-17T06:24:21.709Z,10.68
2023-03-17T06:26:48.350Z,14.00
2023-03-17T06:29:15.724Z,12.90
2023-03-17T06:31:42.165Z,11.35
2023-03-17T06:34:08.603Z,12.85
2023-03-17T06:36:36.965Z,12.15
2023-03-17T06:39:05.065Z,15.13
2023-03-17T06:41:31.860Z,21.38
2023-03-17T06:43:58.405Z,11.52
2023-03-17T06:46:24.957Z,11.00
2023-03-17T06:48:51.445Z,19.38
2023-03-17T06:51:18.033Z,14.25
2023-03-17T06:53:44.676Z,12.10
2023-03-17T06:56:23.531Z,14.77
2023-03-17T06:58:55.578Z,11.38
2023-03-17T07:01:22.369Z,10.73
2023-03-17T07:03:49.862Z,9.88
2023-03-17T07:06:16.647Z,12.02
2023-03-17T07:08:43.244Z,11.32
2023-03-17T07:11:09.827Z,15.18
2023-03-17T07:13:38.684Z,13.57
2023-03-17T07:16:06.959Z,17.48
2023-03-17T07:18:34.239Z,20.92
2023-03-17T07:21:01.928Z,18.15
2023-03-17T07:23:29.397Z,15.75
2023-03-17T07:25:57.433Z,15.18
2023-03-17T07:28:24.372Z,11.45
2023-03-17T07:30:51.372Z,11.07
2023-03-17T07:33:21.142Z,13.23
2023-03-17T07:35:49.456Z,13.25
2023-03-17T07:38:17.873Z,10.70
2023-03-17T07:40:47.562Z,13.48
2023-03-17T07:43:14.852Z,12.95
2023-03-17T07:45:41.456Z,13.90
2023-03-17T07:48:08.575Z,11.85
2023-03-17T07:50:37.036Z,11.45
2023-03-17T07:53:04.585Z,10.98
2023-03-17T07:55:32.782Z,10.85
2023-03-17T07:57:59.926Z,11.65
2023-03-17T08:00:27.831Z,11.38
2023-03-17T08:03:08.877Z,10.15
2023-03-17T08:05:35.816Z,10.40
2023-03-17T08:08:02.421Z,16.50
2023-03-17T08:10:29.559Z,13.93
2023-03-17T08:12:56.443Z,9.25
2023-03-17T08:15:22.994Z,15.95
2023-03-17T08:17:49.597Z,8.63
2023-03-17T08:20:16.340Z,12.75
2023-03-17T08:22:43.990Z,8.90
2023-03-17T08:25:11.709Z,12.30
2023-03-17T08:27:38.563Z,14.48
2023-03-17T08:30:05.801Z,11.77
2023-03-17T08:32:32.979Z,10.95
2023-03-17T08:35:00.329Z,11.65
2023-03-17T08:37:26.932Z,10.20
2023-03-17T08:39:53.572Z,10.55
2023-03-17T08:42:20.190Z,12.82
2023-03-17T08:44:47.246Z,9.23
2023-03-17T08:47:13.682Z,10.48
2023-03-17T08:49:40.252Z,9.73
2023-03-17T08:52:06.887Z,10.10
2023-03-17T08:54:35.001Z,11.18
2023-03-17T08:57:01.770Z,9.23
2023-03-17T08:59:28.694Z,10.27
2023-03-17T09:01:55.813Z,9.05
2023-03-17T09:04:23.326Z,11.38
2023-03-17T09:07:02.713Z,10.55
2023-03-17T09:09:31.070Z,7.75
2023-03-17T09:11:57.743Z,8.57
2023-03-17T09:14:24.674Z,11.35
2023-03-17T09:16:51.342Z,8.57
2023-03-17T09:19:17.888Z,10.07
2023-03-17T09:21:44.865Z,9.13
2023-03-17T09:24:11.704Z,11.38
2023-03-17T09:26:38.280Z,7.63
2023-03-17T09:29:05.270Z,8.43
2023-03-17T09:31:32.923Z,6.13
2023-03-17T09:33:59.960Z,8.20
2023-03-17T09:36:26.460Z,8.30
2023-03-17T09:38:53.028Z,10.88
2023-03-17T09:41:25.799Z,10.68
2023-03-17T09:43:58.386Z,7.68
2023-03-17T09:47:08.422Z,10.13
2023-03-17T09:49:45.963Z,12.60
2023-03-17T09:52:18.821Z,11.30
2023-03-17T09:54:46.620Z,13.60
2023-03-17T09:57:30.124Z,7.88
2023-03-17T10:00:11.544Z,8.52
2023-03-17T10:02:38.152Z,8.80
2023-03-17T10:05:17.096Z,9.43
2023-03-17T10:07:54.399Z,9.25
2023-03-17T10:10:56.920Z,6.93
2023-03-17T10:13:38.990Z,10.98
2023-03-17T10:16:19.360Z,11.52
2023-03-17T10:18:58.465Z,7.93
2023-03-17T10:21:37.529Z,9.85
2023-03-17T10:24:05.164Z,13.00
2023-03-17T10:26:39.752Z,11.75
2023-03-17T10:29:13.751Z,7.78
2023-03-17T10:31:40.624Z,7.82
2023-03-17T10:34:29.278Z,8.20
2023-03-17T10:37:12.830Z,9.65
2023-03-17T10:39:48.251Z,10.23
2023-03-17T10:42:29.545Z,10.07
2023-03-17T10:44:58.432Z,9.23
2023-03-17T10:47:34.685Z,7.43
2023-03-17T10:50:28.862Z,8.30
2023-03-17T10:53:18.283Z,6.75
2023-03-17T10:55:50.600Z,10.07
2023-03-17T10:58:20.253Z,10.63
2023-03-17T11:01:03.680Z,8.63
2023-03-17T11:03:35.956Z,10.00
2023-03-17T11:06:12.247Z,12.52
2023-03-17T11:08:56.802Z,7.72
2023-03-17T11:11:26.299Z,6.53
2023-03-17T11:14:03.362Z,10.98
2023-03-17T11:16:32.900Z,7.00
2023-03-17T11:19:02.269Z,7.40
2023-03-17T11:21:33.889Z,7.30
2023-03-17T11:24:09.406Z,7.32
2023-03-17T11:26:47.405Z,5.78
2023-03-17T11:29:20.689Z,10.10
2023-03-17T11:32:13.736Z,7.43
2023-03-17T11:34:58.920Z,10.48
2023-03-17T11:38:03.563Z,7.60
2023-03-17T11:40:35.262Z,7.47
2023-03-17T11:43:08.054Z,7.90
2023-03-17T11:45:50.474Z,7.97
2023-03-17T11:48:30.306Z,7.80
2023-03-17T11:51:06.665Z,9.77
2023-03-17T11:53:59.588Z,9.80
2023-03-17T11:56:40.792Z,8.63
2023-03-17T11:59:18.476Z,7.05
2023-03-17T12:02:08.082Z,7.00
2023-03-17T12:04:43.546Z,10.52
2023-03-17T12:07:33.076Z,9.98
2023-03-17T12:10:22.858Z,5.37
2023-03-17T12:12:57.952Z,6.55
2023-03-17T12:15:39.331Z,6.22
2023-03-17T12:18:13.141Z,12.70
2023-03-17T12:21:15.825Z,7.90
2023-03-17T12:24:01.750Z,11.10
2023-03-17T12:26:37.173Z,7.72
2023-03-17T12:29:24.906Z,8.77
2023-03-17T12:32:12.650Z,8.50
2023-03-17T12:34:51.715Z,10.00
2023-03-17T12:37:19.465Z,8.57
2023-03-17T12:39:55.562Z,8.40
2023-03-17T12:42:35.583Z,7.55
2023-03-17T12:45:26.246Z,6.97
2023-03-17T12:48:16.780Z,6.15
2023-03-17T12:50:46.380Z,7.57
2023-03-17T12:53:29.505Z,6.32
2023-03-17T12:56:02.404Z,9.13
2023-03-17T12:58:43.816Z,7.05
2023-03-17T13:01:25.390Z,6.05
2023-03-17T13:04:07.264Z,5.78
2023-03-17T13:06:42.551Z,5.60
2023-03-17T13:09:34.038Z,7.95
2023-03-17T13:12:02.170Z,5.53
2023-03-17T13:14:43.106Z,7.53
2023-03-17T13:17:16.597Z,9.75
2023-03-17T13:19:56.837Z,10.20
2023-03-17T13:22:32.568Z,7.78
2023-03-17T13:25:12.644Z,9.52
2023-03-17T13:27:39.086Z,7.15
2023-03-17T13:30:25.731Z,6.68
2023-03-17T13:33:25.735Z,9.35
2023-03-17T13:36:14.293Z,7.57
2023-03-17T13:39:18.614Z,4.97
2023-03-17T13:42:15.692Z,6.32
2023-03-17T13:45:01.080Z,6.90
2023-03-17T13:47:40.124Z,9.65
2023-03-17T13:50:22.269Z,6.85
2023-03-17T13:52:54.653Z,7.43
2023-03-17T13:55:24.120Z,6.63
2023-03-17T13:57:57.290Z,5.77
2023-03-17T14:00:28.866Z,9.35
2023-03-17T14:03:03.744Z,8.10
2023-03-17T14:05:37.923Z,8.15
2023-03-17T14:08:23.557Z,9.05
2023-03-17T14:10:55.739Z,6.07
2023-03-17T14:13:25.566Z,6.45
2023-03-17T14:16:14.059Z,9.98
2023-03-17T14:18:47.421Z,6.50
2023-03-17T14:21:23.963Z,6.68
2023-03-17T14:23:58.803Z,6.20
2023-03-17T14:26:29.014Z,6.40
2023-03-17T14:28:59.156Z,7.43
2023-03-17T14:31:28.110Z,7.18
2023-03-17T14:33:56.958Z,9.65
2023-03-17T14:36:24.971Z,5.70
2023-03-17T14:38:53.721Z,10.85
2023-03-17T14:41:25.961Z,6.05
2023-03-17T14:43:56.898Z,5.38
2023-03-17T14:46:23.660Z,5.03
2023-03-17T14:48:56.912Z,6.57
2023-03-17T14:51:28.492Z,4.88
2023-03-17T14:54:00.113Z,5.45
2023-03-17T14:56:35.516Z,8.32
2023-03-17T14:59:08.094Z,8.63
2023-03-17T15:01:42.864Z,8.43
2023-03-17T15:04:17.736Z,7.60
2023-03-17T15:06:53.614Z,4.80
2023-03-17T15:09:34.970Z,6.80
2023-03-17T15:12:07.091Z,8.77
2023-03-17T15:14:38.629Z,8.15
2023-03-17T15:17:15.792Z,5.55
2023-03-17T15:19:48.004Z,7.70
2023-03-17T15:22:31.858Z,5.50
2023-03-17T15:25:02.303Z,7.78
2023-03-17T15:27:31.263Z,7.60
2023-03-17T15:29:58.137Z,6.72
2023-03-17T15:32:27.361Z,7.45
2023-03-17T15:34:56.866Z,6.55
2023-03-17T15:37:32.148Z,5.90
2023-03-17T15:40:00.170Z,7.95
2023-03-17T15:42:32.924Z,7.18
2023-03-17T15:45:03.528Z,7.97
2023-03-17T15:47:33.803Z,5.65
2023-03-17T15:50:12.046Z,5.60
2023-03-17T15:52:38.564Z,5.85
2023-03-17T15:55:18.362Z,6.72
2023-03-17T15:57:53.916Z,6.90
2023-03-17T16:00:23.711Z,4.57
2023-03-17T16:02:56.140Z,10.43
2023-03-17T16:05:29.250Z,6.80
2023-03-17T16:07:56.232Z,14.55
2023-03-17T16:10:28.645Z,9.00
2023-03-17T16:12:55.428Z,6.53
2023-03-17T16:15:31.659Z,5.70
2023-03-17T16:18:00.434Z,9.77
2023-03-17T16:20:32.616Z,7.13
2023-03-17T16:23:06.929Z,9.23
2023-03-17T16:25:34.213Z,11.38
2023-03-17T16:28:05.070Z,8.13
2023-03-17T16:30:34.438Z,8.18
2023-03-17T16:33:03.598Z,18.38
2023-03-17T16:35:30.333Z,4.80
2023-03-17T16:37:56.963Z,4.78
2023-03-17T16:40:33.050Z,10.98
2023-03-17T16:42:59.542Z,9.20
2023-03-17T16:45:28.020Z,8.75
2023-03-17T16:47:55.957Z,8.98
2023-03-17T16:50:24.976Z,9.95
2023-03-17T16:52:51.915Z,7.60
2023-03-17T16:55:20.798Z,7.60
2023-03-17T16:57:50.393Z,11.32
2023-03-17T17:00:27.113Z,7.20
2023-03-17T17:02:54.254Z,6.75
2023-03-17T17:05:29.778Z,8.55
2023-03-17T17:07:57.308Z,6.43
2023-03-17T17:10:26.336Z,10.80
2023-03-17T17:12:53.543Z,8.43
2023-03-17T17:15:21.844Z,13.73
2023-03-17T17:17:57.214Z,8.38
2023-03-17T17:20:31.111Z,9.43
2023-03-17T17:22:59.713Z,8.45
2023-03-17T17:25:27.142Z,10.90
2023-03-17T17:27:54.920Z,10.57
2023-03-17T17:30:28.166Z,10.68
2023-03-17T17:32:57.596Z,8.13
2023-03-17T17:35:26.092Z,9.27
2023-03-17T17:37:53.714Z,6.88
2023-03-17T17:40:24.369Z,9.52
2023-03-17T17:42:52.121Z,7.45
2023-03-17T17:45:20.124Z,6.45
2023-03-17T17:47:47.183Z,15.77
2023-03-17T17:50:21.063Z,7.55
2023-03-17T17:52:48.017Z,7.28
2023-03-17T17:55:15.181Z,9.80
2023-03-17T17:57:41.981Z,10.32
2023-03-17T18:00:12.676Z,5.57
2023-03-17T18:02:39.216Z,6.22
2023-03-17T18:05:08.085Z,10.38
2023-03-17T18:07:35.717Z,10.23
2023-03-17T18:10:02.846Z,5.35
2023-03-17T18:12:29.428Z,6.22
2023-03-17T18:14:56.080Z,11.07
2023-03-17T18:17:22.950Z,8.27
2023-03-17T18:19:50.449Z,9.35
2023-03-17T18:22:17.192Z,6.85
2023-03-17T18:24:44.089Z,5.97
2023-03-17T18:27:11.735Z,11.02
2023-03-17T18:29:38.874Z,10.43
2023-03-17T18:32:06.937Z,6.63
2023-03-17T18:34:43.268Z,9.68
2023-03-17T18:37:15.187Z,11.23
2023-03-17T18:39:42.494Z,14.43
2023-03-17T18:42:09.702Z,7.93
2023-03-17T18:44:36.815Z,11.75
2023-03-17T18:47:04.140Z,12.85
2023-03-17T18:49:30.858Z,19.48
2023-03-17T18:51:59.379Z,11.93
2023-03-17T18:54:27.715Z,11.32
2023-03-17T18:56:54.895Z,12.95
2023-03-17T18:59:21.538Z,14.50
2023-03-17T19:01:48.009Z,10.93
2023-03-17T19:04:14.592Z,11.52
2023-03-17T19:06:42.555Z,11.15
2023-03-17T19:09:10.504Z,11.05
2023-03-17T19:11:39.198Z,11.23
2023-03-17T19:14:07.457Z,10.82
2023-03-17T19:16:35.114Z,10.25
2023-03-17T19:19:02.567Z,10.02
2023-03-17T19:21:29.097Z,8.10
2023-03-17T19:23:58.983Z,6.40
2023-03-17T19:26:25.511Z,9.00
2023-03-17T19:28:52.188Z,8.27
2023-03-17T19:31:18.842Z,15.15
2023-03-17T19:33:45.536Z,11.02
2023-03-17T19:36:13.007Z,8.55
2023-03-17T19:38:40.994Z,11.55
2023-03-17T19:41:07.970Z,9.98
2023-03-17T19:43:40.710Z,9.68
2023-03-17T19:46:09.255Z,9.60
2023-03-17T19:48:36.643Z,11.93
2023-03-17T19:51:03.386Z,7.40
2023-03-17T19:53:29.924Z,9.80
2023-03-17T19:55:56.879Z,11.68
2023-03-17T19:58:23.734Z,11.30
2023-03-17T20:00:50.568Z,9.35
2023-03-17T20:03:17.191Z,9.50
2023-03-17T20:05:45.721Z,6.43
2023-03-17T20:08:12.295Z,10.02
2023-03-17T20:10:39.200Z,7.13
2023-03-17T20:13:06.356Z,9.63
2023-03-17T20:15:33.598Z,7.55
2023-03-17T20:18:00.705Z,9.35
2023-03-17T20:20:27.448Z,10.15
2023-03-17T20:22:54.190Z,8.98
2023-03-17T20:25:21.683Z,10.90
2023-03-17T20:27:48.412Z,10.60
2023-03-17T20:30:15.276Z,9.93
2023-03-17T20:32:41.768Z,9.00
2023-03-17T20:35:11.724Z,10.52
2023-03-17T20:37:38.733Z,8.80
2023-03-17T20:40:08.159Z,10.35
2023-03-17T20:42:34.622Z,9.65
2023-03-17T20:45:03.317Z,12.80
2023-03-17T20:47:29.815Z,7.40
2023-03-17T20:49:58.596Z,10.82
2023-03-17T20:52:30.285Z,8.75
2023-03-17T20:54:59.349Z,10.80
2023-03-17T20:57:26.237Z,8.93
2023-03-17T20:59:52.858Z,11.95
2023-03-17T21:02:19.520Z,7.53
2023-03-17T21:04:48.583Z,8.68
2023-03-17T21:07:17.092Z,8.18
2023-03-17T21:09:44.161Z,11.38
2023-03-17T21:12:16.200Z,10.45
2023-03-17T21:14:43.035Z,12.45
2023-03-17T21:17:10.786Z,9.02
2023-03-17T21:19:38.165Z,9.88
2023-03-17T21:22:05.627Z,8.70
2023-03-17T21:24:35.007Z,21.25
2023-03-17T21:27:05.046Z,14.03
2023-03-17T21:29:33.190Z,10.95
2023-03-17T21:32:00.978Z,8.77
2023-03-17T21:34:29.873Z,6.78
2023-03-17T21:36:57.171Z,10.93
2023-03-17T21:39:24.845Z,6.63
2023-03-17T21:41:51.753Z,7.60
2023-03-17T21:44:19.251Z,5.72
2023-03-17T21:46:47.856Z,10.13
2023-03-17T21:49:16.304Z,6.88
2023-03-17T21:51:44.328Z,10.60
2023-03-17T21:54:10.958Z,10.05
2023-03-17T21:56:38.966Z,8.45
2023-03-17T21:59:10.958Z,8.73
2023-03-17T22:01:38.932Z,9.57
2023-03-17T22:04:05.636Z,13.55
2023-03-17T22:06:32.352Z,9.27
2023-03-17T22:08:58.796Z,9.93
2023-03-17T22:11:25.663Z,6.80
2023-03-17T22:13:52.274Z,6.68
2023-03-17T22:16:19.661Z,7.45
2023-03-17T22:18:47.475Z,9.20
2023-03-17T22:21:14.660Z,7.60
2023-03-17T22:23:42.320Z,5.38
2023-03-17T22:26:12.337Z,5.72
2023-03-17T22:28:39.374Z,6.68
2023-03-17T22:31:14.691Z,6.78
2023-03-17T22:33:41.903Z,10.65
2023-03-17T22:36:09.354Z,8.43
2023-03-17T22:38:36.301Z,12.27
2023-03-17T22:41:06.410Z,13.88
2023-03-17T22:43:33.024Z,7.93
2023-03-17T22:45:59.650Z,10.48
2023-03-17T22:48:26.664Z,9.85
2023-03-17T22:50:53.281Z,7.53
2023-03-17T22:53:19.815Z,9.20
2023-03-17T22:55:46.604Z,12.10
2023-03-17T22:58:13.158Z,10.93
2023-03-17T23:00:40.455Z,10.20
2023-03-17T23:03:07.186Z,12.32
2023-03-17T23:05:33.884Z,6.97
2023-03-17T23:08:00.565Z,8.55
2023-03-17T23:10:28.543Z,8.95
2023-03-17T23:12:55.399Z,6.70
2023-03-17T23:15:22.354Z,10.88
2023-03-17T23:17:48.935Z,12.95
2023-03-17T23:20:15.818Z,9.88
2023-03-17T23:22:42.454Z,11.52
2023-03-17T23:25:09.924Z,9.95
2023-03-17T23:27:36.646Z,8.80
2023-03-17T23:30:04.312Z,8.40
2023-03-17T23:32:31.901Z,11.13
2023-03-17T23:34:58.493Z,12.15
2023-03-17T23:37:25.100Z,9.23
2023-03-17T23:39:51.598Z,9.38
2023-03-17T23:42:18.255Z,10.07
2023-03-17T23:44:45.031Z,13.80
2023-03-17T23:47:11.910Z,9.85
2023-03-17T23:49:39.052Z,7.88
2023-03-17T23:52:05.785Z,8.35
2023-03-17T23:54:32.951Z,9.77
2023-03-17T23:57:00.111Z,7.05
2023-03-17T23:59:26.882Z,9.25
